sensor_id;sensor_type;location;lat;lon;timestamp;P1;durP1;ratioP1;P2;durP2;ratioP2
39518;SDS011;25200;53.394;10.414;2022-09-09T00:00:22;28.30;;;13.15;;
39518;SDS011;25200;53.394;10.414;2022-09-09T00:02:51;23.80;;;11.60;;
39518;SDS011;25200;53.394;10.414;2022-09-09T00:08:50;17.33;;;10.33;;
39518;SDS011;25200;53.394;10.414;2022-09-09T00:11:25;18.00;;;10.45;;
39518;SDS011;25200;53.394;10.414;2022-09-09T00:13:59;18.20;;;11.43;;
39518;SDS011;25200;53.394;10.414;2022-09-09T00:16:29;25.40;;;12.43;;
39518;SDS011;25200;53.394;10.414;2022-09-09T00:19:02;19.42;;;13.07;;
39518;SDS011;25200;53.394;10.414;2022-09-09T00:21:37;31.63;;;12.85;;
39518;SDS011;25200;53.394;10.414;2022-09-09T00:24:25;18.33;;;10.90;;
39518;SDS011;25200;53.394;10.414;2022-09-09T00:27:40;13.80;;;9.65;;
39518;SDS011;25200;53.394;10.414;2022-09-09T00:30:22;13.05;;;8.73;;
39518;SDS011;25200;53.394;10.414;2022-09-09T00:32:52;20.10;;;12.38;;
39518;SDS011;25200;53.394;10.414;2022-09-09T00:35:24;19.33;;;12.60;;
39518;SDS011;25200;53.394;10.414;2022-09-09T00:38:04;20.08;;;13.00;;
39518;SDS011;25200;53.394;10.414;2022-09-09T00:40:52;22.33;;;12.48;;
39518;SDS011;25200;53.394;10.414;2022-09-09T00:43:26;19.33;;;11.90;;
39518;SDS011;25200;53.394;10.414;2022-09-09T00:51:36;17.27;;;11.77;;
39518;SDS011;25200;53.394;10.414;2022-09-09T00:54:37;12.85;;;8.40;;
39518;SDS011;25200;53.394;10.414;2022-09-09T01:00:15;15.73;;;10.13;;
39518;SDS011;25200;53.394;10.414;2022-09-09T01:10:53;19.73;;;10.55;;
39518;SDS011;25200;53.394;10.414;2022-09-09T01:13:27;13.00;;;9.15;;
39518;SDS011;25200;53.394;10.414;2022-09-09T01:15:59;11.90;;;8.18;;
39518;SDS011;25200;53.394;10.414;2022-09-09T01:18:37;15.10;;;10.48;;
39518;SDS011;25200;53.394;10.414;2022-09-09T01:27:00;11.85;;;8.40;;
39518;SDS011;25200;53.394;10.414;2022-09-09T01:29:27;15.65;;;10.43;;
39518;SDS011;25200;53.394;10.414;2022-09-09T01:34:48;19.63;;;11.15;;
39518;SDS011;25200;53.394;10.414;2022-09-09T01:37:16;19.70;;;10.77;;
39518;SDS011;25200;53.394;10.414;2022-09-09T01:39:42;21.63;;;10.82;;
39518;SDS011;25200;53.394;10.414;2022-09-09T01:42:10;12.50;;;8.68;;
39518;SDS011;25200;53.394;10.414;2022-09-09T01:44:38;15.07;;;10.38;;
39518;SDS011;25200;53.394;10.414;2022-09-09T01:47:04;18.98;;;10.38;;
39518;SDS011;25200;53.394;10.414;2022-09-09T01:49:31;15.35;;;10.48;;
39518;SDS011;25200;53.394;10.414;2022-09-09T01:51:57;15.95;;;9.43;;
39518;SDS011;25200;53.394;10.414;2022-09-09T01:54:26;11.27;;;8.05;;
39518;SDS011;25200;53.394;10.414;2022-09-09T01:56:58;10.77;;;7.55;;
39518;SDS011;25200;53.394;10.414;2022-09-09T02:05:32;14.40;;;8.18;;
39518;SDS011;25200;53.394;10.414;2022-09-09T02:08:08;12.43;;;8.02;;
39518;SDS011;25200;53.394;10.414;2022-09-09T02:13:46;13.55;;;8.65;;
39518;SDS011;25200;53.394;10.414;2022-09-09T02:19:13;10.32;;;7.03;;
39518;SDS011;25200;53.394;10.414;2022-09-09T02:24:17;9.43;;;6.35;;
39518;SDS011;25200;53.394;10.414;2022-09-09T02:26:43;12.00;;;8.15;;
39518;SDS011;25200;53.394;10.414;2022-09-09T02:29:16;14.98;;;9.45;;
39518;SDS011;25200;53.394;10.414;2022-09-09T02:31:46;11.68;;;8.15;;
39518;SDS011;25200;53.394;10.414;2022-09-09T02:34:14;14.13;;;7.63;;
39518;SDS011;25200;53.394;10.414;2022-09-09T02:36:42;16.42;;;8.60;;
39518;SDS011;25200;53.394;10.414;2022-09-09T02:39:10;10.13;;;6.93;;
39518;SDS011;25200;53.394;10.414;2022-09-09T02:41:38;13.35;;;8.98;;
39518;SDS011;25200;53.394;10.414;2022-09-09T02:44:05;13.13;;;8.55;;
39518;SDS011;25200;53.394;10.414;2022-09-09T02:52:15;11.07;;;7.65;;
39518;SDS011;25200;53.394;10.414;2022-09-09T02:54:46;16.38;;;9.45;;
39518;SDS011;25200;53.394;10.414;2022-09-09T02:57:22;16.85;;;9.73;;
39518;SDS011;25200;53.394;10.414;2022-09-09T02:59:50;12.13;;;8.25;;
39518;SDS011;25200;53.394;10.414;2022-09-09T03:02:17;10.82;;;7.90;;
39518;SDS011;25200;53.394;10.414;2022-09-09T03:04:43;13.73;;;8.10;;
39518;SDS011;25200;53.394;10.414;2022-09-09T03:07:10;11.30;;;7.50;;
39518;SDS011;25200;53.394;10.414;2022-09-09T03:09:36;11.30;;;7.47;;
39518;SDS011;25200;53.394;10.414;2022-09-09T03:12:01;11.35;;;6.85;;
39518;SDS011;25200;53.394;10.414;2022-09-09T03:14:29;12.20;;;8.35;;
39518;SDS011;25200;53.394;10.414;2022-09-09T03:16:55;10.15;;;6.57;;
39518;SDS011;25200;53.394;10.414;2022-09-09T03:19:22;11.63;;;8.48;;
39518;SDS011;25200;53.394;10.414;2022-09-09T03:21:48;13.63;;;9.18;;
39518;SDS011;25200;53.394;10.414;2022-09-09T03:24:14;12.95;;;8.90;;
39518;SDS011;25200;53.394;10.414;2022-09-09T03:26:40;12.82;;;8.65;;
39518;SDS011;25200;53.394;10.414;2022-09-09T03:29:09;10.98;;;7.45;;
39518;SDS011;25200;53.394;10.414;2022-09-09T03:31:37;11.10;;;7.10;;
39518;SDS011;25200;53.394;10.414;2022-09-09T03:34:03;11.30;;;7.38;;
39518;SDS011;25200;53.394;10.414;2022-09-09T03:36:29;9.88;;;6.47;;
39518;SDS011;25200;53.394;10.414;2022-09-09T03:38:55;12.48;;;7.15;;
39518;SDS011;25200;53.394;10.414;2022-09-09T03:41:21;12.00;;;7.85;;
39518;SDS011;25200;53.394;10.414;2022-09-09T03:43:49;12.55;;;7.47;;
39518;SDS011;25200;53.394;10.414;2022-09-09T03:46:19;11.05;;;6.63;;
39518;SDS011;25200;53.394;10.414;2022-09-09T03:48:45;10.70;;;7.35;;
39518;SDS011;25200;53.394;10.414;2022-09-09T03:51:11;13.40;;;7.93;;
39518;SDS011;25200;53.394;10.414;2022-09-09T03:53:37;12.13;;;8.05;;
39518;SDS011;25200;53.394;10.414;2022-09-09T03:56:04;10.65;;;7.05;;
39518;SDS011;25200;53.394;10.414;2022-09-09T03:58:31;9.95;;;6.60;;
39518;SDS011;25200;53.394;10.414;2022-09-09T04:01:03;11.75;;;7.88;;
39518;SDS011;25200;53.394;10.414;2022-09-09T04:03:30;9.73;;;6.13;;
39518;SDS011;25200;53.394;10.414;2022-09-09T04:05:57;11.50;;;6.93;;
39518;SDS011;25200;53.394;10.414;2022-09-09T04:08:25;10.25;;;6.43;;
39518;SDS011;25200;53.394;10.414;2022-09-09T04:10:51;11.20;;;7.75;;
39518;SDS011;25200;53.394;10.414;2022-09-09T04:13:17;10.15;;;6.80;;
39518;SDS011;25200;53.394;10.414;2022-09-09T04:15:50;14.40;;;8.15;;
39518;SDS011;25200;53.394;10.414;2022-09-09T04:18:16;11.15;;;7.07;;
39518;SDS011;25200;53.394;10.414;2022-09-09T04:20:42;10.65;;;6.97;;
39518;SDS011;25200;53.394;10.414;2022-09-09T04:23:08;9.88;;;6.75;;
39518;SDS011;25200;53.394;10.414;2022-09-09T04:25:34;12.23;;;7.93;;
39518;SDS011;25200;53.394;10.414;2022-09-09T04:27:59;8.90;;;5.90;;
39518;SDS011;25200;53.394;10.414;2022-09-09T04:30:25;9.45;;;5.90;;
39518;SDS011;25200;53.394;10.414;2022-09-09T04:32:52;13.43;;;8.07;;
39518;SDS011;25200;53.394;10.414;2022-09-09T04:35:18;9.98;;;6.32;;
39518;SDS011;25200;53.394;10.414;2022-09-09T04:37:45;10.90;;;7.15;;
39518;SDS011;25200;53.394;10.414;2022-09-09T04:40:11;11.05;;;6.78;;
39518;SDS011;25200;53.394;10.414;2022-09-09T04:42:37;9.73;;;6.72;;
39518;SDS011;25200;53.394;10.414;2022-09-09T04:45:03;9.07;;;5.78;;
39518;SDS011;25200;53.394;10.414;2022-09-09T04:47:31;11.73;;;7.78;;
39518;SDS011;25200;53.394;10.414;2022-09-09T04:49:57;10.45;;;7.18;;
39518;SDS011;25200;53.394;10.414;2022-09-09T04:52:22;11.30;;;7.65;;
39518;SDS011;25200;53.394;10.414;2022-09-09T04:54:48;10.38;;;6.32;;
39518;SDS011;25200;53.394;10.414;2022-09-09T04:57:13;8.32;;;5.20;;
39518;SDS011;25200;53.394;10.414;2022-09-09T04:59:39;7.95;;;5.00;;
39518;SDS011;25200;53.394;10.414;2022-09-09T05:02:05;10.85;;;6.82;;
39518;SDS011;25200;53.394;10.414;2022-09-09T05:04:31;11.57;;;7.20;;
39518;SDS011;25200;53.394;10.414;2022-09-09T05:06:58;11.63;;;6.90;;
39518;SDS011;25200;53.394;10.414;2022-09-09T05:09:24;11.43;;;6.30;;
39518;SDS011;25200;53.394;10.414;2022-09-09T05:11:49;10.65;;;7.32;;
39518;SDS011;25200;53.394;10.414;2022-09-09T05:14:16;8.48;;;5.88;;
39518;SDS011;25200;53.394;10.414;2022-09-09T05:16:44;10.40;;;6.82;;
39518;SDS011;25200;53.394;10.414;2022-09-09T05:19:10;12.77;;;7.07;;
39518;SDS011;25200;53.394;10.414;2022-09-09T05:21:36;11.57;;;7.13;;
39518;SDS011;25200;53.394;10.414;2022-09-09T05:24:02;12.05;;;6.78;;
39518;SDS011;25200;53.394;10.414;2022-09-09T05:26:28;9.80;;;5.75;;
39518;SDS011;25200;53.394;10.414;2022-09-09T05:28:54;9.45;;;5.95;;
39518;SDS011;25200;53.394;10.414;2022-09-09T05:31:20;9.75;;;5.40;;
39518;SDS011;25200;53.394;10.414;2022-09-09T05:33:47;9.73;;;6.00;;
39518;SDS011;25200;53.394;10.414;2022-09-09T05:36:17;10.45;;;6.20;;
39518;SDS011;25200;53.394;10.414;2022-09-09T05:38:45;8.10;;;4.88;;
39518;SDS011;25200;53.394;10.414;2022-09-09T05:41:11;7.38;;;4.78;;
39518;SDS011;25200;53.394;10.414;2022-09-09T05:43:38;9.43;;;6.05;;
39518;SDS011;25200;53.394;10.414;2022-09-09T05:46:05;9.82;;;7.07;;
39518;SDS011;25200;53.394;10.414;2022-09-09T05:48:36;8.77;;;5.00;;
39518;SDS011;25200;53.394;10.414;2022-09-09T05:51:03;8.52;;;5.32;;
39518;SDS011;25200;53.394;10.414;2022-09-09T05:53:30;9.90;;;6.00;;
39518;SDS011;25200;53.394;10.414;2022-09-09T05:56:09;10.82;;;6.28;;
39518;SDS011;25200;53.394;10.414;2022-09-09T05:58:36;10.15;;;6.13;;
39518;SDS011;25200;53.394;10.414;2022-09-09T06:01:04;8.30;;;5.43;;
39518;SDS011;25200;53.394;10.414;2022-09-09T06:03:39;12.88;;;6.10;;
39518;SDS011;25200;53.394;10.414;2022-09-09T06:06:06;7.75;;;4.15;;
39518;SDS011;25200;53.394;10.414;2022-09-09T06:08:34;7.00;;;4.50;;
39518;SDS011;25200;53.394;10.414;2022-09-09T06:11:09;8.68;;;5.10;;
39518;SDS011;25200;53.394;10.414;2022-09-09T06:13:36;9.00;;;5.40;;
39518;SDS011;25200;53.394;10.414;2022-09-09T06:16:11;9.25;;;5.82;;
39518;SDS011;25200;53.394;10.414;2022-09-09T06:18:38;9.80;;;5.22;;
39518;SDS011;25200;53.394;10.414;2022-09-09T06:21:05;8.68;;;5.53;;
39518;SDS011;25200;53.394;10.414;2022-09-09T06:23:32;7.68;;;5.63;;
39518;SDS011;25200;53.394;10.414;2022-09-09T06:28:27;8.00;;;4.63;;
39518;SDS011;25200;53.394;10.414;2022-09-09T06:30:59;8.40;;;4.20;;
39518;SDS011;25200;53.394;10.414;2022-09-09T06:33:26;7.18;;;4.10;;
39518;SDS011;25200;53.394;10.414;2022-09-09T06:35:55;6.75;;;4.15;;
39518;SDS011;25200;53.394;10.414;2022-09-09T06:38:22;7.88;;;4.82;;
39518;SDS011;25200;53.394;10.414;2022-09-09T06:40:54;9.88;;;4.38;;
39518;SDS011;25200;53.394;10.414;2022-09-09T06:48:29;5.57;;;3.40;;
39518;SDS011;25200;53.394;10.414;2022-09-09T06:51:05;6.00;;;3.45;;
39518;SDS011;25200;53.394;10.414;2022-09-09T06:53:31;7.07;;;3.78;;
39518;SDS011;25200;53.394;10.414;2022-09-09T06:55:59;6.95;;;3.95;;
39518;SDS011;25200;53.394;10.414;2022-09-09T06:58:38;7.65;;;3.80;;
39518;SDS011;25200;53.394;10.414;2022-09-09T07:01:09;7.53;;;3.38;;
39518;SDS011;25200;53.394;10.414;2022-09-09T07:03:37;6.18;;;3.08;;
39518;SDS011;25200;53.394;10.414;2022-09-09T07:06:03;6.00;;;2.70;;
39518;SDS011;25200;53.394;10.414;2022-09-09T07:08:30;7.97;;;3.38;;
39518;SDS011;25200;53.394;10.414;2022-09-09T07:11:06;4.82;;;2.80;;
39518;SDS011;25200;53.394;10.414;2022-09-09T07:13:33;5.78;;;3.28;;
39518;SDS011;25200;53.394;10.414;2022-09-09T07:16:06;5.80;;;2.90;;
39518;SDS011;25200;53.394;10.414;2022-09-09T07:18:33;6.13;;;2.90;;
39518;SDS011;25200;53.394;10.414;2022-09-09T07:20:59;6.20;;;2.95;;
39518;SDS011;25200;53.394;10.414;2022-09-09T07:23:27;6.13;;;3.15;;
39518;SDS011;25200;53.394;10.414;2022-09-09T07:25:53;7.80;;;3.60;;
39518;SDS011;25200;53.394;10.414;2022-09-09T07:28:19;5.82;;;2.90;;
39518;SDS011;25200;53.394;10.414;2022-09-09T07:30:58;5.55;;;3.42;;
39518;SDS011;25200;53.394;10.414;2022-09-09T07:33:29;8.00;;;3.45;;
39518;SDS011;25200;53.394;10.414;2022-09-09T07:36:03;7.32;;;3.15;;
39518;SDS011;25200;53.394;10.414;2022-09-09T07:38:32;10.35;;;3.60;;
39518;SDS011;25200;53.394;10.414;2022-09-09T07:41:05;4.78;;;2.75;;
39518;SDS011;25200;53.394;10.414;2022-09-09T07:43:36;5.85;;;2.83;;
39518;SDS011;25200;53.394;10.414;2022-09-09T07:46:13;6.18;;;2.92;;
39518;SDS011;25200;53.394;10.414;2022-09-09T07:48:47;5.97;;;2.60;;
39518;SDS011;25200;53.394;10.414;2022-09-09T07:51:21;8.02;;;3.00;;
39518;SDS011;25200;53.394;10.414;2022-09-09T07:53:53;6.47;;;2.80;;
39518;SDS011;25200;53.394;10.414;2022-09-09T07:56:20;4.70;;;2.50;;
39518;SDS011;25200;53.394;10.414;2022-09-09T07:58:48;7.97;;;3.20;;
39518;SDS011;25200;53.394;10.414;2022-09-09T08:01:16;7.38;;;2.63;;
39518;SDS011;25200;53.394;10.414;2022-09-09T08:03:43;5.53;;;2.63;;
39518;SDS011;25200;53.394;10.414;2022-09-09T08:06:10;4.80;;;2.50;;
39518;SDS011;25200;53.394;10.414;2022-09-09T08:08:37;6.13;;;2.92;;
39518;SDS011;25200;53.394;10.414;2022-09-09T08:11:11;5.00;;;2.70;;
39518;SDS011;25200;53.394;10.414;2022-09-09T08:13:39;6.13;;;2.70;;
39518;SDS011;25200;53.394;10.414;2022-09-09T08:18:52;6.07;;;2.67;;
39518;SDS011;25200;53.394;10.414;2022-09-09T08:21:22;7.03;;;2.33;;
39518;SDS011;25200;53.394;10.414;2022-09-09T08:23:50;6.53;;;2.88;;
39518;SDS011;25200;53.394;10.414;2022-09-09T08:26:19;5.25;;;2.35;;
39518;SDS011;25200;53.394;10.414;2022-09-09T08:28:49;5.18;;;2.45;;
39518;SDS011;25200;53.394;10.414;2022-09-09T08:31:18;4.10;;;2.00;;
39518;SDS011;25200;53.394;10.414;2022-09-09T08:33:48;7.72;;;2.55;;
39518;SDS011;25200;53.394;10.414;2022-09-09T08:36:17;8.75;;;2.65;;
39518;SDS011;25200;53.394;10.414;2022-09-09T08:38:51;5.97;;;2.50;;
39518;SDS011;25200;53.394;10.414;2022-09-09T08:53:04;6.55;;;2.30;;
39518;SDS011;25200;53.394;10.414;2022-09-09T08:55:47;4.97;;;2.40;;
39518;SDS011;25200;53.394;10.414;2022-09-09T08:58:31;7.00;;;2.33;;
39518;SDS011;25200;53.394;10.414;2022-09-09T09:01:09;5.93;;;2.40;;
39518;SDS011;25200;53.394;10.414;2022-09-09T09:11:51;4.97;;;2.40;;
39518;SDS011;25200;53.394;10.414;2022-09-09T09:14:26;4.90;;;2.40;;
39518;SDS011;25200;53.394;10.414;2022-09-09T09:19:29;4.13;;;1.90;;
39518;SDS011;25200;53.394;10.414;2022-09-09T09:22:10;4.03;;;1.95;;
39518;SDS011;25200;53.394;10.414;2022-09-09T09:27:15;4.80;;;2.20;;
39518;SDS011;25200;53.394;10.414;2022-09-09T09:29:45;4.85;;;2.40;;
39518;SDS011;25200;53.394;10.414;2022-09-09T09:32:15;7.72;;;2.60;;
39518;SDS011;25200;53.394;10.414;2022-09-09T09:34:48;8.07;;;2.42;;
39518;SDS011;25200;53.394;10.414;2022-09-09T09:37:28;6.38;;;2.20;;
39518;SDS011;25200;53.394;10.414;2022-09-09T09:40:07;5.05;;;2.20;;
39518;SDS011;25200;53.394;10.414;2022-09-09T09:42:37;6.00;;;2.35;;
39518;SDS011;25200;53.394;10.414;2022-09-09T09:47:57;8.93;;;2.15;;
39518;SDS011;25200;53.394;10.414;2022-09-09T09:50:25;5.40;;;2.10;;
39518;SDS011;25200;53.394;10.414;2022-09-09T09:52:54;4.28;;;2.03;;
39518;SDS011;25200;53.394;10.414;2022-09-09T09:55:22;5.53;;;2.13;;
39518;SDS011;25200;53.394;10.414;2022-09-09T09:57:49;8.90;;;2.50;;
39518;SDS011;25200;53.394;10.414;2022-09-09T10:00:19;5.63;;;2.22;;
39518;SDS011;25200;53.394;10.414;2022-09-09T10:02:48;23.55;;;3.75;;
39518;SDS011;25200;53.394;10.414;2022-09-09T10:07:47;7.05;;;2.22;;
39518;SDS011;25200;53.394;10.414;2022-09-09T10:10:26;7.40;;;2.30;;
39518;SDS011;25200;53.394;10.414;2022-09-09T10:16:12;4.13;;;2.00;;
39518;SDS011;25200;53.394;10.414;2022-09-09T10:27:27;4.82;;;1.92;;
39518;SDS011;25200;53.394;10.414;2022-09-09T10:33:26;5.15;;;2.08;;
39518;SDS011;25200;53.394;10.414;2022-09-09T10:43:58;4.50;;;1.90;;
39518;SDS011;25200;53.394;10.414;2022-09-09T10:46:56;4.45;;;1.88;;
39518;SDS011;25200;53.394;10.414;2022-09-09T10:52:27;5.18;;;1.58;;
39518;SDS011;25200;53.394;10.414;2022-09-09T10:55:19;6.00;;;1.80;;
39518;SDS011;25200;53.394;10.414;2022-09-09T10:57:50;3.22;;;1.50;;
39518;SDS011;25200;53.394;10.414;2022-09-09T11:03:04;5.20;;;1.95;;
39518;SDS011;25200;53.394;10.414;2022-09-09T11:05:31;4.03;;;1.55;;
39518;SDS011;25200;53.394;10.414;2022-09-09T11:10:53;4.13;;;1.80;;
39518;SDS011;25200;53.394;10.414;2022-09-09T11:16:00;9.90;;;1.88;;
39518;SDS011;25200;53.394;10.414;2022-09-09T11:18:48;6.15;;;1.70;;
39518;SDS011;25200;53.394;10.414;2022-09-09T11:21:24;3.65;;;1.80;;
39518;SDS011;25200;53.394;10.414;2022-09-09T11:23:54;4.63;;;1.52;;
39518;SDS011;25200;53.394;10.414;2022-09-09T11:26:58;4.72;;;1.60;;
39518;SDS011;25200;53.394;10.414;2022-09-09T11:29:43;3.00;;;1.42;;
39518;SDS011;25200;53.394;10.414;2022-09-09T11:40:42;3.72;;;1.40;;
39518;SDS011;25200;53.394;10.414;2022-09-09T11:45:50;2.95;;;1.25;;
39518;SDS011;25200;53.394;10.414;2022-09-09T11:48:28;3.13;;;1.30;;
39518;SDS011;25200;53.394;10.414;2022-09-09T11:56:24;3.63;;;1.40;;
39518;SDS011;25200;53.394;10.414;2022-09-09T11:59:06;3.63;;;1.48;;
39518;SDS011;25200;53.394;10.414;2022-09-09T12:01:45;6.00;;;1.48;;
39518;SDS011;25200;53.394;10.414;2022-09-09T12:06:53;3.05;;;1.33;;
39518;SDS011;25200;53.394;10.414;2022-09-09T12:17:25;4.32;;;1.77;;
39518;SDS011;25200;53.394;10.414;2022-09-09T12:28:20;5.72;;;1.80;;
39518;SDS011;25200;53.394;10.414;2022-09-09T12:30:58;4.68;;;1.90;;
39518;SDS011;25200;53.394;10.414;2022-09-09T12:33:35;5.22;;;1.90;;
39518;SDS011;25200;53.394;10.414;2022-09-09T12:36:02;2.88;;;1.20;;
39518;SDS011;25200;53.394;10.414;2022-09-09T12:38:34;3.22;;;1.27;;
39518;SDS011;25200;53.394;10.414;2022-09-09T12:41:02;1.98;;;0.80;;
39518;SDS011;25200;53.394;10.414;2022-09-09T12:43:28;2.67;;;1.08;;
39518;SDS011;25200;53.394;10.414;2022-09-09T12:46:00;7.70;;;1.45;;
39518;SDS011;25200;53.394;10.414;2022-09-09T12:48:38;2.13;;;1.10;;
39518;SDS011;25200;53.394;10.414;2022-09-09T12:51:16;2.88;;;1.13;;
39518;SDS011;25200;53.394;10.414;2022-09-09T12:53:50;3.78;;;1.02;;
39518;SDS011;25200;53.394;10.414;2022-09-09T12:56:20;2.53;;;0.82;;
39518;SDS011;25200;53.394;10.414;2022-09-09T12:58:52;2.25;;;0.80;;
39518;SDS011;25200;53.394;10.414;2022-09-09T13:01:24;3.83;;;1.00;;
39518;SDS011;25200;53.394;10.414;2022-09-09T13:03:53;1.45;;;0.80;;
39518;SDS011;25200;53.394;10.414;2022-09-09T13:06:24;3.67;;;0.68;;
39518;SDS011;25200;53.394;10.414;2022-09-09T13:08:54;1.57;;;0.77;;
39518;SDS011;25200;53.394;10.414;2022-09-09T13:14:04;4.00;;;0.73;;
39518;SDS011;25200;53.394;10.414;2022-09-09T13:16:32;2.22;;;0.80;;
39518;SDS011;25200;53.394;10.414;2022-09-09T13:19:00;1.00;;;0.60;;
39518;SDS011;25200;53.394;10.414;2022-09-09T13:21:35;2.50;;;1.05;;
39518;SDS011;25200;53.394;10.414;2022-09-09T13:24:04;5.03;;;0.70;;
39518;SDS011;25200;53.394;10.414;2022-09-09T13:26:33;3.25;;;1.10;;
39518;SDS011;25200;53.394;10.414;2022-09-09T13:29:16;1.33;;;0.80;;
39518;SDS011;25200;53.394;10.414;2022-09-09T13:31:44;3.20;;;1.00;;
39518;SDS011;25200;53.394;10.414;2022-09-09T13:34:14;2.67;;;0.93;;
39518;SDS011;25200;53.394;10.414;2022-09-09T13:36:59;3.17;;;0.90;;
39518;SDS011;25200;53.394;10.414;2022-09-09T13:39:35;2.88;;;1.00;;
39518;SDS011;25200;53.394;10.414;2022-09-09T13:42:02;3.13;;;0.98;;
39518;SDS011;25200;53.394;10.414;2022-09-09T13:44:30;2.15;;;1.00;;
39518;SDS011;25200;53.394;10.414;2022-09-09T13:47:49;2.13;;;0.77;;
39518;SDS011;25200;53.394;10.414;2022-09-09T13:49:57;2.05;;;0.82;;
39518;SDS011;25200;53.394;10.414;2022-09-09T13:52:23;6.10;;;1.00;;
39518;SDS011;25200;53.394;10.414;2022-09-09T13:54:49;2.88;;;0.98;;
39518;SDS011;25200;53.394;10.414;2022-09-09T13:57:25;2.03;;;0.88;;
39518;SDS011;25200;53.394;10.414;2022-09-09T13:59:51;2.95;;;1.00;;
39518;SDS011;25200;53.394;10.414;2022-09-09T14:02:19;2.50;;;0.90;;
39518;SDS011;25200;53.394;10.414;2022-09-09T14:04:47;2.80;;;0.93;;
39518;SDS011;25200;53.394;10.414;2022-09-09T14:07:16;2.95;;;1.10;;
39518;SDS011;25200;53.394;10.414;2022-09-09T14:09:43;1.92;;;0.80;;
39518;SDS011;25200;53.394;10.414;2022-09-09T14:12:12;2.30;;;1.20;;
39518;SDS011;25200;53.394;10.414;2022-09-09T14:14:39;2.88;;;1.15;;
39518;SDS011;25200;53.394;10.414;2022-09-09T14:17:04;2.08;;;0.90;;
39518;SDS011;25200;53.394;10.414;2022-09-09T14:19:30;2.35;;;1.30;;
39518;SDS011;25200;53.394;10.414;2022-09-09T14:21:56;3.60;;;1.20;;
39518;SDS011;25200;53.394;10.414;2022-09-09T14:24:22;4.68;;;1.23;;
39518;SDS011;25200;53.394;10.414;2022-09-09T14:26:48;10.98;;;2.17;;
39518;SDS011;25200;53.394;10.414;2022-09-09T14:29:14;8.63;;;1.98;;
39518;SDS011;25200;53.394;10.414;2022-09-09T14:31:40;11.13;;;2.40;;
39518;SDS011;25200;53.394;10.414;2022-09-09T14:34:05;8.32;;;2.20;;
39518;SDS011;25200;53.394;10.414;2022-09-09T14:36:31;5.78;;;1.95;;
39518;SDS011;25200;53.394;10.414;2022-09-09T14:38:58;5.43;;;1.98;;
39518;SDS011;25200;53.394;10.414;2022-09-09T14:41:23;7.82;;;2.30;;
39518;SDS011;25200;53.394;10.414;2022-09-09T14:43:50;5.85;;;2.20;;
39518;SDS011;25200;53.394;10.414;2022-09-09T14:46:17;8.48;;;2.40;;
39518;SDS011;25200;53.394;10.414;2022-09-09T14:48:43;11.25;;;1.95;;
39518;SDS011;25200;53.394;10.414;2022-09-09T14:53:54;4.22;;;1.80;;
39518;SDS011;25200;53.394;10.414;2022-09-09T14:56:23;3.67;;;1.58;;
39518;SDS011;25200;53.394;10.414;2022-09-09T14:58:52;6.18;;;1.67;;
39518;SDS011;25200;53.394;10.414;2022-09-09T15:01:20;5.70;;;1.60;;
39518;SDS011;25200;53.394;10.414;2022-09-09T15:03:50;5.85;;;1.70;;
39518;SDS011;25200;53.394;10.414;2022-09-09T15:06:18;3.50;;;1.50;;
39518;SDS011;25200;53.394;10.414;2022-09-09T15:08:44;3.50;;;1.40;;
39518;SDS011;25200;53.394;10.414;2022-09-09T15:11:12;3.85;;;1.70;;
39518;SDS011;25200;53.394;10.414;2022-09-09T15:13:39;7.53;;;1.50;;
39518;SDS011;25200;53.394;10.414;2022-09-09T15:16:06;4.38;;;1.50;;
39518;SDS011;25200;53.394;10.414;2022-09-09T15:18:33;3.97;;;1.33;;
39518;SDS011;25200;53.394;10.414;2022-09-09T15:21:00;4.25;;;1.35;;
39518;SDS011;25200;53.394;10.414;2022-09-09T15:23:33;4.82;;;1.45;;
39518;SDS011;25200;53.394;10.414;2022-09-09T15:25:59;6.95;;;1.50;;
39518;SDS011;25200;53.394;10.414;2022-09-09T15:28:24;4.32;;;1.30;;
39518;SDS011;25200;53.394;10.414;2022-09-09T15:30:50;4.82;;;1.40;;
39518;SDS011;25200;53.394;10.414;2022-09-09T15:33:17;4.80;;;1.60;;
39518;SDS011;25200;53.394;10.414;2022-09-09T15:35:44;4.30;;;1.58;;
39518;SDS011;25200;53.394;10.414;2022-09-09T15:38:10;3.40;;;1.42;;
39518;SDS011;25200;53.394;10.414;2022-09-09T15:40:38;4.25;;;1.55;;
39518;SDS011;25200;53.394;10.414;2022-09-09T15:43:04;4.22;;;1.80;;
39518;SDS011;25200;53.394;10.414;2022-09-09T15:45:31;5.60;;;1.40;;
39518;SDS011;25200;53.394;10.414;2022-09-09T15:47:58;4.60;;;1.60;;
39518;SDS011;25200;53.394;10.414;2022-09-09T15:50:27;4.70;;;1.63;;
39518;SDS011;25200;53.394;10.414;2022-09-09T15:52:56;2.22;;;1.25;;
39518;SDS011;25200;53.394;10.414;2022-09-09T15:55:22;3.95;;;1.60;;
39518;SDS011;25200;53.394;10.414;2022-09-09T15:57:49;3.05;;;1.50;;
39518;SDS011;25200;53.394;10.414;2022-09-09T16:00:15;4.40;;;1.73;;
39518;SDS011;25200;53.394;10.414;2022-09-09T16:02:41;3.70;;;1.55;;
39518;SDS011;25200;53.394;10.414;2022-09-09T16:05:07;5.30;;;1.83;;
39518;SDS011;25200;53.394;10.414;2022-09-09T16:07:33;4.75;;;2.00;;
39518;SDS011;25200;53.394;10.414;2022-09-09T16:09:59;6.22;;;2.42;;
39518;SDS011;25200;53.394;10.414;2022-09-09T16:12:25;6.00;;;2.15;;
39518;SDS011;25200;53.394;10.414;2022-09-09T16:14:51;5.07;;;2.58;;
39518;SDS011;25200;53.394;10.414;2022-09-09T16:17:17;6.03;;;2.33;;
39518;SDS011;25200;53.394;10.414;2022-09-09T16:19:44;5.35;;;2.30;;
39518;SDS011;25200;53.394;10.414;2022-09-09T16:22:10;5.13;;;2.42;;
39518;SDS011;25200;53.394;10.414;2022-09-09T16:24:36;5.88;;;2.35;;
39518;SDS011;25200;53.394;10.414;2022-09-09T16:27:02;6.47;;;2.40;;
39518;SDS011;25200;53.394;10.414;2022-09-09T16:29:28;8.15;;;2.80;;
39518;SDS011;25200;53.394;10.414;2022-09-09T16:31:53;4.75;;;2.50;;
39518;SDS011;25200;53.394;10.414;2022-09-09T16:34:20;5.70;;;2.50;;
39518;SDS011;25200;53.394;10.414;2022-09-09T16:36:46;5.45;;;2.40;;
39518;SDS011;25200;53.394;10.414;2022-09-09T16:39:14;4.38;;;2.35;;
39518;SDS011;25200;53.394;10.414;2022-09-09T16:41:41;5.72;;;2.50;;
39518;SDS011;25200;53.394;10.414;2022-09-09T16:44:09;5.80;;;2.65;;
39518;SDS011;25200;53.394;10.414;2022-09-09T16:46:37;5.30;;;2.40;;
39518;SDS011;25200;53.394;10.414;2022-09-09T16:49:05;5.18;;;2.60;;
39518;SDS011;25200;53.394;10.414;2022-09-09T16:51:39;7.85;;;2.38;;
39518;SDS011;25200;53.394;10.414;2022-09-09T16:54:09;6.60;;;2.35;;
39518;SDS011;25200;53.394;10.414;2022-09-09T16:56:37;4.15;;;2.30;;
39518;SDS011;25200;53.394;10.414;2022-09-09T16:59:07;4.45;;;2.35;;
39518;SDS011;25200;53.394;10.414;2022-09-09T17:01:38;7.22;;;2.20;;
39518;SDS011;25200;53.394;10.414;2022-09-09T17:04:07;4.40;;;2.60;;
39518;SDS011;25200;53.394;10.414;2022-09-09T17:06:40;3.97;;;2.22;;
39518;SDS011;25200;53.394;10.414;2022-09-09T17:09:10;4.10;;;2.10;;
39518;SDS011;25200;53.394;10.414;2022-09-09T17:11:39;5.05;;;2.38;;
39518;SDS011;25200;53.394;10.414;2022-09-09T17:14:05;4.28;;;1.92;;
39518;SDS011;25200;53.394;10.414;2022-09-09T17:16:33;4.40;;;1.70;;
39518;SDS011;25200;53.394;10.414;2022-09-09T17:19:00;7.03;;;2.08;;
39518;SDS011;25200;53.394;10.414;2022-09-09T17:21:27;4.80;;;1.88;;
39518;SDS011;25200;53.394;10.414;2022-09-09T17:23:53;5.40;;;1.80;;
39518;SDS011;25200;53.394;10.414;2022-09-09T17:26:21;3.72;;;1.92;;
39518;SDS011;25200;53.394;10.414;2022-09-09T17:28:48;5.05;;;2.17;;
39518;SDS011;25200;53.394;10.414;2022-09-09T17:31:15;5.95;;;1.90;;